»·PEaware :: UAL1013 KSFO-KDEN

UAL1013 :: KSFO-KDEN

FLIGHT INFORMATION

Flight Status: Arrived
Operator:
United Airlines
More flights by this operator :: More flights under this callsign
Pilot: Reginald K. (16863)
Aircraft: BOEING 777-200
(B772)
More flights by this aircraft type
Origin: KSFO San Francisco Intl
United States
Destination: KDEN Denver Intl
United States
More flights between these airports :: More routes between these airports
Route: +SNTNA2 TIPRE Q126 INSLO Q126 EKR KAILE2
File this flight plan on PilotEdge
Remarks: +CW /
Altitude:
(Current/Filed)
39,000ft
Speed:
(Current/Filed)
482kts
Departed: 19-Apr-19 08:03 PM
Arrived: 19-Apr-19 09:59 PM
Distance/Time
Traveled:
838nm/1:55
Distance/Time
To Go:
Arrived

Flight Plot

Page will automatically refresh every two minutes.


Map Options




Map Legend


Flown Route
Filed Route
Departure Airport
Arrival Airport
Navaid (VOR, NDB)
Fix

Horizontal Profiles

Position Reports

Time Latitude Longitude Heading Altitude Ground
Speed
19-Apr-19 19:27 37.621322 -122.389196 207 26ft 0kts
19-Apr-19 19:28 37.621322 -122.389196 207 26ft 0kts
19-Apr-19 19:29 37.621322 -122.389196 207 26ft 0kts
19-Apr-19 19:30 37.621322 -122.389196 207 26ft 0kts
19-Apr-19 19:31 37.621322 -122.389196 207 26ft 0kts
19-Apr-19 19:32 37.621322 -122.389196 207 26ft 0kts
19-Apr-19 19:33 37.621322 -122.389196 207 26ft 0kts
19-Apr-19 19:34 37.621322 -122.389196 207 26ft 0kts
19-Apr-19 19:35 37.621322 -122.389196 207 26ft 0kts
19-Apr-19 19:36 37.621322 -122.389196 207 26ft 0kts
19-Apr-19 19:37 37.621322 -122.389196 207 26ft 0kts
19-Apr-19 19:38 37.621322 -122.389196 207 26ft 0kts
19-Apr-19 19:39 37.621322 -122.389196 207 26ft 0kts
19-Apr-19 19:40 37.621322 -122.389196 207 26ft 0kts
19-Apr-19 19:41 37.621322 -122.389196 207 26ft 0kts
19-Apr-19 19:42 37.621322 -122.389196 207 26ft 0kts
19-Apr-19 19:43 37.621322 -122.389196 207 26ft 0kts
19-Apr-19 19:44 37.621322 -122.389196 207 26ft 0kts
19-Apr-19 19:45 37.621322 -122.389196 207 26ft 0kts
19-Apr-19 19:46 37.621322 -122.389196 207 26ft 0kts
19-Apr-19 19:47 37.621322 -122.389196 207 26ft 0kts
19-Apr-19 19:48 37.621465 -122.389101 210 26ft 2kts
19-Apr-19 19:49 37.622032 -122.388754 186 26ft 2kts
19-Apr-19 19:50 37.622430 -122.389116 104 26ft 2kts
19-Apr-19 19:51 37.622482 -122.389371 104 26ft 0kts
19-Apr-19 19:52 37.622482 -122.389371 104 26ft 0kts
19-Apr-19 19:53 37.622482 -122.389371 104 26ft 0kts
19-Apr-19 19:54 37.622470 -122.389311 104 26ft 2kts
19-Apr-19 19:55 37.620892 -122.385073 118 26ft 25kts
19-Apr-19 19:56 37.618431 -122.378873 125 26ft 13kts
19-Apr-19 19:57 37.616494 -122.373439 117 26ft 31kts
19-Apr-19 19:58 37.612747 -122.365519 117 26ft 21kts
19-Apr-19 19:59 37.610540 -122.359636 76 26ft 16kts
19-Apr-19 20:00 37.610918 -122.359072 31 26ft 0kts
19-Apr-19 20:01 37.611189 -122.358866 29 26ft 12kts
19-Apr-19 20:02 37.621883 -122.381367 300 473ft 168kts
19-Apr-19 20:03 37.651975 -122.441425 299 2727ft 243kts
19-Apr-19 20:04 37.695895 -122.507685 329 5571ft 249kts
19-Apr-19 20:05 37.771062 -122.527250 3 5836ft 287kts
19-Apr-19 20:06 37.827241 -122.456514 59 9401ft 304kts
19-Apr-19 20:07 37.859381 -122.355801 73 13208ft 326kts
19-Apr-19 20:08 37.891629 -122.233710 72 15511ft 396kts
19-Apr-19 20:09 37.927966 -122.096706 72 18713ft 422kts
19-Apr-19 20:10 37.965994 -121.954591 72 19520ft 430kts
19-Apr-19 20:11 38.004854 -121.808880 72 22024ft 446kts
19-Apr-19 20:12 38.045092 -121.656063 72 25016ft 465kts
19-Apr-19 20:13 38.086615 -121.497300 73 27982ft 483kts
19-Apr-19 20:14 38.129778 -121.332711 73 30685ft 501kts
19-Apr-19 20:15 38.172740 -121.165319 73 33698ft 495kts
19-Apr-19 20:16 38.213089 -120.997199 79 35859ft 498kts
19-Apr-19 20:17 38.236597 -120.823753 83 37642ft 501kts
19-Apr-19 20:18 38.260145 -120.647703 83 38967ft 508kts
19-Apr-19 20:19 38.285150 -120.471014 82 38981ft 508kts
19-Apr-19 20:20 38.309701 -120.293813 83 38991ft 508kts
19-Apr-19 20:21 38.333841 -120.116338 83 39003ft 508kts
19-Apr-19 20:22 38.357685 -119.938898 83 39041ft 509kts
19-Apr-19 20:23 38.381286 -119.760987 83 39054ft 509kts
19-Apr-19 20:24 38.404593 -119.583215 83 39022ft 509kts
19-Apr-19 20:25 38.427688 -119.404900 83 39015ft 509kts
19-Apr-19 20:26 38.450485 -119.226690 83 39006ft 510kts
19-Apr-19 20:27 38.473005 -119.048415 83 38988ft 510kts
19-Apr-19 20:28 38.495339 -118.869364 84 38966ft 511kts
19-Apr-19 20:29 38.517401 -118.690203 84 38952ft 511kts
19-Apr-19 20:30 38.539266 -118.510278 84 38951ft 512kts
19-Apr-19 20:31 38.560852 -118.330281 84 38949ft 512kts
19-Apr-19 20:32 38.582122 -118.150566 84 38958ft 513kts
19-Apr-19 20:33 38.603207 -117.969899 84 38971ft 513kts
19-Apr-19 20:34 38.623960 -117.789642 84 38983ft 514kts
19-Apr-19 20:35 38.644927 -117.608423 84 38996ft 514kts
19-Apr-19 20:36 38.664901 -117.427646 84 39007ft 514kts
19-Apr-19 20:37 38.686096 -117.246643 81 39015ft 516kts
19-Apr-19 20:38 38.717714 -117.067488 79 39020ft 516kts
19-Apr-19 20:39 38.748014 -116.887964 80 39030ft 516kts
19-Apr-19 20:40 38.778843 -116.707956 80 39035ft 516kts
19-Apr-19 20:41 38.808755 -116.528426 80 39034ft 516kts
19-Apr-19 20:42 38.838375 -116.348021 80 39034ft 517kts
19-Apr-19 20:43 38.867729 -116.167307 80 39035ft 517kts
19-Apr-19 20:44 38.896754 -115.986761 80 39034ft 517kts
19-Apr-19 20:46 38.925612 -115.805396 80 39063ft 518kts
19-Apr-19 20:47 38.954086 -115.624443 80 39055ft 517kts
19-Apr-19 20:48 38.982221 -115.443765 80 39063ft 518kts
19-Apr-19 20:49 39.010306 -115.261455 80 39072ft 518kts
19-Apr-19 20:50 39.037914 -115.080351 80 39080ft 518kts
19-Apr-19 20:51 39.065327 -114.898404 80 39084ft 518kts
19-Apr-19 20:52 39.092475 -114.716276 80 39086ft 519kts
19-Apr-19 20:53 39.119387 -114.533656 80 39084ft 519kts
19-Apr-19 20:54 39.145993 -114.351062 81 39077ft 519kts
19-Apr-19 20:55 39.172324 -114.168255 81 39069ft 518kts
19-Apr-19 20:56 39.198262 -113.986077 81 39064ft 518kts
19-Apr-19 20:57 39.224006 -113.803157 80 39058ft 518kts
19-Apr-19 20:58 39.249725 -113.619880 80 39051ft 518kts
19-Apr-19 20:59 39.274884 -113.436700 81 39045ft 518kts
19-Apr-19 21:00 39.299561 -113.253436 81 39041ft 518kts
19-Apr-19 21:01 39.329357 -113.071365 78 39039ft 519kts
19-Apr-19 21:02 39.359487 -112.889219 78 39046ft 519kts
19-Apr-19 21:03 39.389849 -112.707058 78 39040ft 518kts
19-Apr-19 21:04 39.419787 -112.525054 78 39039ft 518kts
19-Apr-19 21:05 39.449126 -112.343164 78 39041ft 516kts
19-Apr-19 21:06 39.478187 -112.160924 78 39043ft 516kts
19-Apr-19 21:07 39.506902 -111.978842 78 39041ft 515kts
19-Apr-19 21:07 39.530584 -111.827172 78 39043ft 515kts
19-Apr-19 21:09 39.563363 -111.615036 78 39067ft 515kts
19-Apr-19 21:10 39.591150 -111.432971 78 39078ft 515kts
19-Apr-19 21:10 39.614072 -111.281285 78 39089ft 515kts
19-Apr-19 21:12 39.645923 -111.068134 78 39109ft 515kts
19-Apr-19 21:12 39.668388 -110.916089 78 39115ft 514kts
19-Apr-19 21:14 39.699445 -110.703483 78 39119ft 514kts
19-Apr-19 21:14 39.721418 -110.551312 78 39115ft 513kts
19-Apr-19 21:15 39.747391 -110.369517 78 39108ft 511kts
19-Apr-19 21:16 39.773017 -110.188038 78 39099ft 511kts
19-Apr-19 21:17 39.798373 -110.006326 78 39101ft 510kts
19-Apr-19 21:19 39.827517 -109.794749 79 39095ft 510kts
19-Apr-19 21:19 39.848140 -109.643204 78 39085ft 511kts
19-Apr-19 21:20 39.872644 -109.461106 79 39081ft 511kts
19-Apr-19 21:21 39.896847 -109.278990 79 39083ft 512kts
19-Apr-19 21:22 39.920859 -109.096100 78 39086ft 511kts
19-Apr-19 21:23 39.944551 -108.913216 78 39087ft 511kts
19-Apr-19 21:24 39.967915 -108.730581 78 39091ft 511kts
19-Apr-19 21:25 39.990933 -108.548303 78 39095ft 510kts
19-Apr-19 21:26 40.013705 -108.365587 78 39110ft 509kts
19-Apr-19 21:27 40.036453 -108.183560 78 39130ft 509kts
19-Apr-19 21:28 40.058284 -108.001216 79 39146ft 509kts
19-Apr-19 21:29 40.086469 -107.820895 71 39149ft 506kts
19-Apr-19 21:30 40.124069 -107.643107 72 39160ft 506kts
19-Apr-19 21:31 40.159781 -107.465077 72 39174ft 506kts
19-Apr-19 21:32 40.195850 -107.287373 72 39164ft 506kts
19-Apr-19 21:33 40.231057 -107.109441 72 38825ft 502kts
19-Apr-19 21:34 40.265769 -106.932244 73 35922ft 504kts
19-Apr-19 21:35 40.300211 -106.754856 73 33343ft 498kts
19-Apr-19 21:36 40.333997 -106.581264 74 31244ft 483kts
19-Apr-19 21:37 40.365821 -106.412923 74 29183ft 470kts
19-Apr-19 21:38 40.397083 -106.248582 74 27021ft 459kts
19-Apr-19 21:39 40.427001 -106.088035 74 24928ft 448kts
19-Apr-19 21:40 40.435174 -105.927871 96 22836ft 439kts
19-Apr-19 21:41 40.410250 -105.772511 100 20878ft 426kts
19-Apr-19 21:42 40.386859 -105.623935 100 19156ft 409kts
19-Apr-19 21:43 40.365134 -105.489025 100 17487ft 346kts
19-Apr-19 21:44 40.347003 -105.367033 97 16682ft 342kts
19-Apr-19 21:45 40.330824 -105.244495 99 15090ft 341kts
19-Apr-19 21:46 40.314705 -105.129285 99 13482ft 300kts
19-Apr-19 21:47 40.300552 -105.028622 99 12963ft 272kts
19-Apr-19 21:48 40.286821 -104.931220 99 12723ft 277kts
19-Apr-19 21:49 40.272636 -104.832184 99 11646ft 275kts
19-Apr-19 21:50 40.252344 -104.736978 116 10844ft 267kts
19-Apr-19 21:51 40.190567 -104.696873 174 9969ft 247kts
19-Apr-19 21:52 40.126898 -104.693524 182 9364ft 217kts
19-Apr-19 21:53 40.069755 -104.694066 182 8557ft 194kts
19-Apr-19 21:54 40.016669 -104.694679 182 7237ft 189kts
19-Apr-19 21:55 39.968731 -104.695238 180 6919ft 152kts
19-Apr-19 21:56 39.927724 -104.696178 179 6022ft 143kts
19-Apr-19 21:57 39.888301 -104.696222 178 5448ft 130kts
19-Apr-19 21:58 39.875861 -104.694988 148 5444ft 0kts
19-Apr-19 21:59 39.875849 -104.694978 148 5444ft 1kts
19-Apr-19 22:00 39.875022 -104.688363 92 5444ft 34kts
19-Apr-19 22:01 39.871867 -104.684994 180 5444ft 14kts
19-Apr-19 22:02 39.868428 -104.685049 180 5444ft 10kts
19-Apr-19 22:03 39.865095 -104.685056 180 5444ft 17kts
19-Apr-19 22:04 39.859076 -104.685088 180 5444ft 20kts
19-Apr-19 22:05 39.856013 -104.682533 75 5444ft 15kts
19-Apr-19 22:06 39.856681 -104.678185 90 5444ft 11kts
19-Apr-19 22:07 39.856648 -104.674486 90 5444ft 9kts
19-Apr-19 22:08 39.857087 -104.671977 6 5444ft 7kts
19-Apr-19 22:09 39.858134 -104.671958 0 5444ft 0kts
19-Apr-19 22:10 39.858160 -104.671958 0 5444ft 0kts
19-Apr-19 22:11 39.858160 -104.671958 0 5444ft 0kts

Navigation Log

Ident Type
Flight plan parsing failed, navigation log unavailable